Time;durP1;ratioP1;P1;durP2;ratioP2;P2;SDS_P1;SDS_P2;PMS_P1;PMS_P2;Temp;Humidity;BMP_temperature;BMP_pressure;BME280_temperature;BME280_humidity;BME280_pressure;Samples;Min_cycle;Max_cycle;Signal;HPM_P1;HPM_P2
2023/04/24 00:00:41;;;;;;;17.37;12.30;;;10.50;99.90;;;;;;5038698;28;20181;-96
2023/04/24 00:03:08;;;;;;;17.63;13.33;;;10.40;99.90;;;;;;5038982;28;20285;-94
2023/04/24 00:05:35;;;;;;;18.93;13.03;;;10.30;99.90;;;;;;5037191;28;20177;-94
2023/04/24 00:08:01;;;;;;;20.27;12.77;;;10.30;99.90;;;;;;5035353;28;20194;-95
2023/04/24 00:10:35;;;;;;;16.77;12.70;;;10.30;99.90;;;;;;5037521;28;20178;-95
2023/04/24 00:13:04;;;;;;;19.23;13.50;;;10.40;99.90;;;;;;5035888;28;20616;-95
2023/04/24 00:15:30;;;;;;;19.57;12.83;;;10.20;99.90;;;;;;5037780;28;20178;-94
2023/04/24 00:17:56;;;;;;;19.63;13.20;;;10.10;99.90;;;;;;5054158;28;20257;-95
2023/04/24 00:20:32;;;;;;;18.87;12.80;;;10.00;99.90;;;;;;5042150;28;20174;-94
2023/04/24 00:23:11;;;;;;;17.10;13.40;;;10.00;99.90;;;;;;5035502;28;20177;-94
2023/04/24 00:25:39;;;;;;;15.53;12.43;;;10.00;99.90;;;;;;5036945;28;20180;-95
2023/04/24 00:28:13;;;;;;;22.67;13.33;;;10.00;99.90;;;;;;5037722;28;20169;-95
2023/04/24 00:30:50;;;;;;;15.83;12.73;;;10.10;99.90;;;;;;5039740;28;20174;-95
2023/04/24 00:33:49;;;;;;;19.53;14.00;;;10.10;99.90;;;;;;5033090;28;20267;-95
2023/04/24 00:36:26;;;;;;;18.60;13.37;;;10.00;99.90;;;;;;5054561;28;20162;-95
2023/04/24 00:38:58;;;;;;;23.50;13.83;;;10.00;99.90;;;;;;5061658;28;20188;-94
2023/04/24 00:41:28;;;;;;;18.90;14.00;;;10.00;99.90;;;;;;5052578;28;20185;-95
2023/04/24 00:43:54;;;;;;;16.90;13.90;;;10.10;99.90;;;;;;5037869;28;20188;-95
2023/04/24 00:46:24;;;;;;;21.10;14.80;;;10.20;99.90;;;;;;5053613;28;20185;-94
2023/04/24 00:48:50;;;;;;;20.33;13.37;;;10.10;99.90;;;;;;5054693;28;20660;-93
2023/04/24 00:51:19;;;;;;;19.33;13.47;;;10.00;99.90;;;;;;5053815;28;20623;-96
2023/04/24 00:53:48;;;;;;;19.53;13.00;;;10.00;99.90;;;;;;5036006;28;20560;-94
2023/04/24 00:56:18;;;;;;;20.10;14.10;;;10.00;99.90;;;;;;5051802;28;20569;-96
2023/04/24 00:58:45;;;;;;;21.10;13.90;;;10.10;99.90;;;;;;5051641;28;20239;-95
2023/04/24 01:01:11;;;;;;;18.60;14.13;;;10.10;99.90;;;;;;5051627;28;20274;-95
2023/04/24 01:03:38;;;;;;;22.40;14.03;;;10.20;99.90;;;;;;5041589;28;20185;-95
2023/04/24 01:06:05;;;;;;;19.37;14.13;;;10.20;99.90;;;;;;5033172;28;20181;-95
2023/04/24 01:08:33;;;;;;;17.47;14.70;;;10.10;99.90;;;;;;5032960;28;20605;-95
2023/04/24 01:11:00;;;;;;;19.33;14.13;;;10.10;99.90;;;;;;5035882;28;20570;-96
2023/04/24 01:13:27;;;;;;;18.23;14.20;;;10.00;99.90;;;;;;5034633;28;20248;-95
2023/04/24 01:15:55;;;;;;;18.90;14.20;;;10.00;99.90;;;;;;5034073;28;20267;-95
2023/04/24 01:18:21;;;;;;;25.40;14.53;;;10.00;99.90;;;;;;5034180;28;20197;-96
2023/04/24 01:20:50;;;;;;;19.90;14.03;;;10.00;99.90;;;;;;5033361;28;20176;-95
2023/04/24 01:23:17;;;;;;;18.00;13.57;;;9.80;99.90;;;;;;5033400;28;20177;-95
2023/04/24 01:25:43;;;;;;;15.23;13.07;;;9.90;99.90;;;;;;5042354;28;20169;-94
2023/04/24 01:28:15;;;;;;;18.93;14.17;;;9.90;99.90;;;;;;5049135;28;20178;-94
2023/04/24 01:30:42;;;;;;;18.00;13.53;;;9.90;99.90;;;;;;5043707;28;20177;-95
2023/04/24 01:33:11;;;;;;;15.90;12.70;;;9.90;99.90;;;;;;5056825;28;20225;-91
2023/04/24 01:35:43;;;;;;;18.97;12.90;;;9.80;99.90;;;;;;5056504;28;20178;-93
2023/04/24 01:38:14;;;;;;;17.67;12.67;;;9.90;99.90;;;;;;5056729;28;20166;-92
2023/04/24 01:40:41;;;;;;;15.83;11.97;;;9.90;99.90;;;;;;5044951;28;20192;-96
2023/04/24 01:43:15;;;;;;;15.67;11.60;;;9.90;99.90;;;;;;5033815;28;20181;-95
2023/04/24 01:45:45;;;;;;;16.47;12.50;;;9.90;99.90;;;;;;5033612;28;20177;-93
2023/04/24 01:48:13;;;;;;;16.60;11.87;;;9.80;99.90;;;;;;5056501;28;20177;-92
2023/04/24 01:50:52;;;;;;;15.73;11.40;;;9.80;99.90;;;;;;5046243;28;20180;-95
2023/04/24 01:53:27;;;;;;;15.40;11.33;;;9.70;99.90;;;;;;5034814;28;20704;-95
2023/04/24 01:56:17;;;;;;;16.40;12.13;;;9.70;99.90;;;;;;5033712;28;20173;-94
2023/04/24 01:58:44;;;;;;;14.80;11.80;;;9.80;99.90;;;;;;5033729;28;20197;-94
2023/04/24 02:01:21;;;;;;;15.80;12.60;;;9.90;99.90;;;;;;5032029;28;20173;-95
2023/04/24 02:03:47;;;;;;;12.93;11.50;;;9.90;99.90;;;;;;5032653;28;20176;-94
2023/04/24 02:06:13;;;;;;;13.87;11.43;;;9.80;99.90;;;;;;5033313;28;20202;-94
2023/04/24 02:08:39;;;;;;;16.03;11.63;;;9.80;99.90;;;;;;5048392;28;20193;-94
2023/04/24 02:11:06;;;;;;;17.63;13.20;;;9.80;99.90;;;;;;5054026;28;20192;-94
2023/04/24 02:13:31;;;;;;;18.30;13.50;;;9.80;99.90;;;;;;5040382;28;20224;-94
2023/04/24 02:15:58;;;;;;;15.30;13.27;;;9.80;99.90;;;;;;5037134;28;20170;-94
2023/04/24 02:18:32;;;;;;;18.23;14.37;;;9.80;99.90;;;;;;5037827;28;20169;-94
2023/04/24 02:21:02;;;;;;;18.33;12.73;;;9.80;99.90;;;;;;5038195;28;20185;-94
2023/04/24 02:23:28;;;;;;;14.20;11.47;;;9.70;99.90;;;;;;5035871;28;20197;-93
2023/04/24 02:25:55;;;;;;;14.10;11.37;;;9.70;99.90;;;;;;5042361;28;20181;-94
2023/04/24 02:28:24;;;;;;;15.93;13.03;;;9.50;99.90;;;;;;5056466;28;20173;-95
2023/04/24 02:30:51;;;;;;;19.60;12.73;;;9.80;99.90;;;;;;5060435;28;20162;-94
2023/04/24 02:36:08;;;;;;;17.70;13.33;;;9.70;99.90;;;;;;5054888;28;20162;-92
2023/04/24 02:38:38;;;;;;;18.03;13.17;;;9.70;99.90;;;;;;5054097;28;20197;-93
2023/04/24 02:41:23;;;;;;;18.33;13.10;;;9.60;99.90;;;;;;5043133;28;20583;-94
2023/04/24 02:43:53;;;;;;;19.07;13.53;;;9.60;99.90;;;;;;5040909;28;20174;-94
2023/04/24 02:46:20;;;;;;;16.70;13.33;;;9.70;99.90;;;;;;5040659;28;20189;-95
2023/04/24 02:48:48;;;;;;;18.77;12.20;;;9.60;99.90;;;;;;5039969;28;20169;-93
2023/04/24 02:51:16;;;;;;;17.50;12.33;;;9.60;99.90;;;;;;5039240;28;20192;-93
2023/04/24 02:53:45;;;;;;;15.63;13.07;;;9.60;99.90;;;;;;5038276;28;20247;-94
2023/04/24 02:56:13;;;;;;;16.23;12.90;;;9.60;99.90;;;;;;5047559;28;20192;-95
2023/04/24 02:58:45;;;;;;;15.33;12.20;;;9.60;99.90;;;;;;5058871;28;20182;-93
2023/04/24 03:01:11;;;;;;;17.30;12.30;;;9.60;99.90;;;;;;5053301;28;20177;-89
2023/04/24 03:03:49;;;;;;;14.77;12.43;;;9.50;99.90;;;;;;5059812;28;20204;-91
2023/04/24 03:06:24;;;;;;;15.13;12.17;;;9.50;99.90;;;;;;5059984;28;20149;-91
2023/04/24 03:08:55;;;;;;;17.53;11.37;;;9.70;99.90;;;;;;5059068;28;20216;-94
2023/04/24 03:11:24;;;;;;;18.00;11.90;;;9.50;99.90;;;;;;5057972;28;20170;-94
2023/04/24 03:13:49;;;;;;;16.03;12.23;;;9.50;99.90;;;;;;5054364;28;20212;-93
2023/04/24 03:16:15;;;;;;;15.20;12.40;;;9.50;99.90;;;;;;5040771;28;20177;-93
2023/04/24 03:22:09;;;;;;;13.50;11.50;;;9.60;99.90;;;;;;5047726;28;20172;-94
2023/04/24 03:24:35;;;;;;;15.43;11.90;;;9.60;99.90;;;;;;5037808;28;20213;-94
2023/04/24 03:27:01;;;;;;;16.83;12.07;;;9.50;99.90;;;;;;5035579;28;20513;-94
2023/04/24 03:29:27;;;;;;;17.20;11.73;;;9.40;99.90;;;;;;5036335;28;20264;-93
2023/04/24 03:31:58;;;;;;;14.67;11.63;;;9.40;99.90;;;;;;5036148;28;20181;-94
2023/04/24 03:34:24;;;;;;;17.17;12.27;;;9.40;99.90;;;;;;5051862;28;20213;-95
2023/04/24 03:36:50;;;;;;;15.77;11.97;;;9.40;99.90;;;;;;5052238;28;20249;-94
2023/04/24 03:39:18;;;;;;;14.90;11.60;;;9.40;99.90;;;;;;5055723;28;20166;-95
2023/04/24 03:41:44;;;;;;;17.97;12.13;;;9.40;99.90;;;;;;5057689;28;20169;-93
2023/04/24 03:44:10;;;;;;;13.87;10.90;;;9.40;99.90;;;;;;5048822;28;20181;-95
2023/04/24 03:46:42;;;;;;;12.53;9.70;;;9.40;99.90;;;;;;5044137;28;20254;-94
2023/04/24 03:49:08;;;;;;;15.00;10.07;;;9.40;99.90;;;;;;5048147;28;20196;-93
2023/04/24 03:51:34;;;;;;;11.07;8.53;;;9.40;99.90;;;;;;5045858;28;20541;-91
2023/04/24 03:54:00;;;;;;;11.10;9.03;;;9.50;99.90;;;;;;5058586;28;20201;-90
2023/04/24 04:00:21;;;;;;;8.27;7.37;;;9.60;99.90;;;;;;5013272;28;20697;-94
2023/04/24 04:02:47;;;;;;;10.20;7.67;;;9.60;99.90;;;;;;5036235;28;20166;-92
2023/04/24 04:05:13;;;;;;;9.23;7.23;;;9.70;99.90;;;;;;5035216;28;20166;-94
2023/04/24 04:07:42;;;;;;;8.40;7.50;;;9.70;99.90;;;;;;5035516;28;20174;-94
2023/04/24 04:10:08;;;;;;;10.87;7.63;;;9.80;99.90;;;;;;5033725;28;20174;-96
2023/04/24 04:12:34;;;;;;;9.63;7.40;;;9.80;99.90;;;;;;5033546;28;20548;-94
2023/04/24 04:15:00;;;;;;;8.60;6.77;;;9.80;99.90;;;;;;5034562;28;20210;-95
2023/04/24 04:17:26;;;;;;;11.13;7.47;;;9.80;99.90;;;;;;5047071;28;20166;-90
2023/04/24 04:19:52;;;;;;;8.83;6.90;;;9.80;99.90;;;;;;5031249;28;20676;-95
2023/04/24 04:22:19;;;;;;;9.33;7.10;;;9.80;99.90;;;;;;5034392;28;20174;-96
2023/04/24 04:24:46;;;;;;;9.10;8.10;;;9.80;99.90;;;;;;5017598;28;20660;-95
2023/04/24 04:27:13;;;;;;;7.83;6.53;;;9.70;99.90;;;;;;5033125;28;20634;-95
2023/04/24 04:29:45;;;;;;;7.33;6.40;;;9.80;99.90;;;;;;5034269;28;20178;-94
2023/04/24 04:32:11;;;;;;;8.73;6.87;;;9.70;99.90;;;;;;5033578;28;20653;-94
2023/04/24 04:34:42;;;;;;;8.57;7.03;;;9.70;99.90;;;;;;5035147;28;20201;-93
2023/04/24 04:37:10;;;;;;;8.70;6.43;;;9.60;99.90;;;;;;5034798;28;20622;-94
2023/04/24 04:39:41;;;;;;;10.33;7.10;;;9.60;99.90;;;;;;5034452;28;20181;-94
2023/04/24 04:42:07;;;;;;;9.83;7.40;;;9.60;99.90;;;;;;5034041;28;20705;-94
2023/04/24 04:44:35;;;;;;;7.80;6.37;;;9.50;99.90;;;;;;5035139;28;20697;-93
2023/04/24 04:47:05;;;;;;;11.47;7.57;;;9.50;99.90;;;;;;5018456;28;20173;-93
2023/04/24 04:49:38;;;;;;;8.90;7.87;;;9.50;99.90;;;;;;5034016;28;20181;-95
2023/04/24 04:52:04;;;;;;;11.47;8.40;;;9.50;99.90;;;;;;5034530;28;20180;-94
2023/04/24 04:54:31;;;;;;;9.83;8.57;;;9.50;99.90;;;;;;5016745;28;20249;-96
2023/04/24 04:57:00;;;;;;;14.10;10.47;;;9.50;99.90;;;;;;5034894;28;20189;-94
2023/04/24 04:59:26;;;;;;;14.03;10.70;;;9.50;99.90;;;;;;5037566;28;20177;-93
2023/04/24 05:01:55;;;;;;;17.17;11.27;;;9.50;99.90;;;;;;5050370;28;20165;-91
2023/04/24 05:04:21;;;;;;;16.00;10.83;;;9.50;99.90;;;;;;5053569;28;20207;-93
2023/04/24 05:06:48;;;;;;;14.83;11.77;;;9.40;99.90;;;;;;5056824;28;20227;-87
2023/04/24 05:09:16;;;;;;;15.27;11.20;;;9.50;99.90;;;;;;5056417;28;20217;-92
2023/04/24 05:11:45;;;;;;;17.93;12.07;;;9.50;99.90;;;;;;5054717;28;20170;-94
2023/04/24 05:14:17;;;;;;;14.17;11.57;;;9.50;99.90;;;;;;5047542;28;20285;-92
2023/04/24 05:16:48;;;;;;;14.90;11.77;;;9.50;99.90;;;;;;5054165;28;20170;-88
2023/04/24 05:19:46;;;;;;;18.00;13.27;;;9.50;99.90;;;;;;5057251;28;20180;-90
2023/04/24 05:22:23;;;;;;;15.80;11.47;;;9.40;99.90;;;;;;5037127;28;20178;-95
2023/04/24 05:24:52;;;;;;;15.80;12.07;;;9.40;99.90;;;;;;5038250;28;20173;-94
2023/04/24 05:27:17;;;;;;;20.57;11.87;;;9.40;99.90;;;;;;5037049;28;20204;-94
2023/04/24 05:29:46;;;;;;;16.50;11.87;;;9.40;99.90;;;;;;5036218;28;20169;-93
2023/04/24 05:32:14;;;;;;;15.03;11.70;;;9.40;99.90;;;;;;5037185;28;20165;-93
2023/04/24 05:34:42;;;;;;;16.67;12.20;;;9.40;99.90;;;;;;5055524;28;20200;-93
2023/04/24 05:37:10;;;;;;;17.67;12.60;;;9.40;99.90;;;;;;5051969;28;20209;-92
2023/04/24 05:39:40;;;;;;;16.77;12.40;;;9.50;99.90;;;;;;5053180;28;20177;-93
2023/04/24 05:42:06;;;;;;;15.70;12.13;;;9.40;99.90;;;;;;5041498;28;20173;-92
2023/04/24 05:44:32;;;;;;;15.47;12.07;;;9.50;99.90;;;;;;5058400;28;20265;-92
2023/04/24 05:46:58;;;;;;;16.97;11.50;;;9.30;99.90;;;;;;5042316;28;20184;-96
2023/04/24 05:49:27;;;;;;;17.00;11.60;;;9.40;99.90;;;;;;5043309;28;20173;-95
2023/04/24 05:52:15;;;;;;;19.10;12.50;;;9.40;99.90;;;;;;5041077;28;20178;-96
2023/04/24 05:54:41;;;;;;;15.73;12.30;;;9.30;99.90;;;;;;5041198;28;20243;-92
2023/04/24 05:57:10;;;;;;;16.07;12.57;;;9.30;99.90;;;;;;5045297;28;20204;-94
2023/04/24 05:59:38;;;;;;;17.20;12.23;;;9.30;99.90;;;;;;5056292;28;20189;-91
2023/04/24 06:02:12;;;;;;;23.33;13.30;;;9.40;99.90;;;;;;5053071;28;20208;-93
2023/04/24 06:04:41;;;;;;;22.20;13.13;;;9.30;99.90;;;;;;5042516;28;20264;-95
2023/04/24 06:07:11;;;;;;;16.43;12.60;;;9.30;99.90;;;;;;5045104;28;20177;-94
2023/04/24 06:09:39;;;;;;;18.53;13.03;;;9.30;99.90;;;;;;5041527;28;20204;-96
2023/04/24 06:12:08;;;;;;;17.23;13.40;;;9.20;99.90;;;;;;5045073;28;20200;-93
2023/04/24 06:14:35;;;;;;;15.77;12.23;;;9.20;99.90;;;;;;5044305;28;20215;-92
2023/04/24 06:17:02;;;;;;;20.03;13.13;;;9.20;99.90;;;;;;5042283;28;20165;-94
2023/04/24 06:19:29;;;;;;;19.70;13.67;;;9.10;99.90;;;;;;5041272;28;20434;-94
2023/04/24 06:22:01;;;;;;;20.60;13.23;;;9.00;99.90;;;;;;5021905;28;20180;-93
2023/04/24 06:24:30;;;;;;;17.73;13.57;;;9.10;99.90;;;;;;5038234;28;20181;-91
2023/04/24 06:26:58;;;;;;;17.20;12.87;;;9.20;99.90;;;;;;5040734;28;20528;-89
2023/04/24 06:29:24;;;;;;;21.20;14.20;;;9.20;99.90;;;;;;5039849;28;20169;-90
2023/04/24 06:31:51;;;;;;;24.60;15.27;;;9.20;99.90;;;;;;5040921;28;20185;-90
2023/04/24 06:34:17;;;;;;;19.17;14.53;;;9.20;99.90;;;;;;5037570;28;20677;-91
2023/04/24 06:36:47;;;;;;;19.97;14.67;;;9.20;99.90;;;;;;5038610;28;20202;-90
2023/04/24 06:39:14;;;;;;;21.70;14.93;;;9.30;99.90;;;;;;5041125;28;20210;-89
2023/04/24 06:41:48;;;;;;;20.63;14.47;;;9.30;99.90;;;;;;5036180;28;20169;-90
2023/04/24 06:44:15;;;;;;;23.70;15.27;;;9.30;99.90;;;;;;5038528;28;20175;-92
2023/04/24 06:46:41;;;;;;;21.80;15.83;;;9.40;99.90;;;;;;5038212;28;20180;-91
2023/04/24 06:49:09;;;;;;;20.67;15.90;;;9.10;99.90;;;;;;5037164;28;20268;-90
2023/04/24 06:51:35;;;;;;;27.30;18.07;;;9.40;99.90;;;;;;5048633;28;20165;-91
2023/04/24 06:54:01;;;;;;;24.73;17.77;;;9.50;99.90;;;;;;5035855;28;20225;-90
2023/04/24 06:56:34;;;;;;;29.53;20.93;;;9.50;99.90;;;;;;5038171;28;20166;-90
2023/04/24 06:58:59;;;;;;;32.07;18.47;;;9.60;99.90;;;;;;5041459;28;20173;-91
2023/04/24 07:01:25;;;;;;;30.30;20.10;;;9.60;99.90;;;;;;5052237;28;20217;-91
2023/04/24 07:03:55;;;;;;;25.50;17.83;;;9.60;99.90;;;;;;5051261;28;20153;-90
2023/04/24 07:06:24;;;;;;;26.43;19.57;;;9.60;99.90;;;;;;5056015;28;20162;-91
2023/04/24 07:08:56;;;;;;;26.90;19.03;;;9.60;99.90;;;;;;5045184;28;20199;-91
2023/04/24 07:11:23;;;;;;;26.37;17.57;;;9.50;99.90;;;;;;5055843;28;20184;-91
2023/04/24 07:13:49;;;;;;;21.80;16.03;;;9.60;99.90;;;;;;5052177;28;20205;-91
2023/04/24 07:16:19;;;;;;;27.37;16.13;;;9.60;99.90;;;;;;5051082;28;20211;-92
2023/04/24 07:18:45;;;;;;;21.30;15.17;;;9.60;99.90;;;;;;5044843;28;20188;-90
2023/04/24 07:21:12;;;;;;;23.87;15.23;;;9.70;99.90;;;;;;5044267;28;20256;-90
2023/04/24 07:23:41;;;;;;;22.50;15.17;;;9.70;99.90;;;;;;5038840;28;20183;-91
2023/04/24 07:26:07;;;;;;;22.83;15.20;;;9.80;99.90;;;;;;5043715;28;20196;-90
2023/04/24 07:28:35;;;;;;;19.27;14.73;;;9.80;99.90;;;;;;5037347;28;20182;-89
2023/04/24 07:31:01;;;;;;;19.60;13.83;;;9.80;99.90;;;;;;5030993;28;20241;-91
2023/04/24 07:33:27;;;;;;;19.43;13.87;;;9.80;99.90;;;;;;5051869;28;20204;-87
2023/04/24 07:35:53;;;;;;;27.50;16.40;;;9.80;99.90;;;;;;5057569;28;20201;-87
2023/04/24 07:38:21;;;;;;;25.67;15.70;;;9.80;99.90;;;;;;5058232;28;20165;-88
2023/04/24 07:40:49;;;;;;;21.23;14.23;;;9.80;99.90;;;;;;5058878;28;20189;-89
2023/04/24 07:43:24;;;;;;;18.07;12.13;;;9.80;99.90;;;;;;5046151;28;20208;-90
2023/04/24 07:45:56;;;;;;;22.53;14.07;;;9.80;99.90;;;;;;5043505;28;20260;-91
2023/04/24 07:48:54;;;;;;;20.10;15.43;;;10.00;99.90;;;;;;5038370;28;20162;-91
2023/04/24 07:51:23;;;;;;;24.47;16.57;;;10.00;99.90;;;;;;5037707;28;20173;-91
2023/04/24 07:53:49;;;;;;;26.03;17.50;;;10.00;99.90;;;;;;5043198;28;20329;-90
2023/04/24 07:56:19;;;;;;;21.27;13.60;;;10.10;99.90;;;;;;5049977;28;20194;-90
2023/04/24 07:58:46;;;;;;;29.00;20.07;;;10.00;99.90;;;;;;5037087;28;20182;-91
2023/04/24 08:01:12;;;;;;;34.07;20.70;;;10.20;99.90;;;;;;5031845;28;20696;-90
2023/04/24 08:03:39;;;;;;;16.20;11.70;;;10.30;99.90;;;;;;5019717;28;20190;-90
2023/04/24 08:06:05;;;;;;;15.67;10.83;;;10.30;99.90;;;;;;5029658;28;20281;-88
2023/04/24 08:08:33;;;;;;;15.60;11.50;;;10.40;99.90;;;;;;5036526;28;20250;-87
2023/04/24 08:10:59;;;;;;;18.37;12.97;;;10.30;99.90;;;;;;5036954;28;20162;-88
2023/04/24 08:13:26;;;;;;;16.30;11.60;;;10.40;99.90;;;;;;5034006;28;20280;-88
2023/04/24 08:15:56;;;;;;;21.10;12.93;;;10.20;99.90;;;;;;5021850;28;20273;-90
2023/04/24 08:18:26;;;;;;;20.57;12.90;;;10.20;99.90;;;;;;5018538;28;20197;-88
2023/04/24 08:20:51;;;;;;;14.90;8.83;;;10.30;99.90;;;;;;5030418;28;20190;-89
2023/04/24 08:23:23;;;;;;;15.93;10.07;;;10.20;99.80;;;;;;5032358;28;20169;-90
2023/04/24 08:25:55;;;;;;;14.40;7.50;;;10.20;99.90;;;;;;5032804;28;20623;-89
2023/04/24 08:28:26;;;;;;;19.50;9.00;;;10.20;99.20;;;;;;5016967;28;20184;-91
2023/04/24 08:30:54;;;;;;;16.10;9.10;;;10.40;99.20;;;;;;5015141;28;20177;-90
2023/04/24 08:33:22;;;;;;;15.57;8.33;;;10.30;96.30;;;;;;5015200;28;20305;-89
2023/04/24 08:35:49;;;;;;;15.37;9.40;;;10.30;95.90;;;;;;5014782;28;20198;-90
2023/04/24 08:38:15;;;;;;;20.33;11.43;;;10.40;95.50;;;;;;5014604;28;20216;-90
2023/04/24 08:40:42;;;;;;;15.33;9.87;;;10.50;93.90;;;;;;5017631;28;20693;-89
2023/04/24 08:43:11;;;;;;;13.43;8.60;;;10.50;91.70;;;;;;5031784;28;20170;-90
2023/04/24 08:45:38;;;;;;;19.50;11.20;;;10.60;92.60;;;;;;5023694;28;20158;-90
2023/04/24 08:48:05;;;;;;;14.80;10.00;;;10.70;91.10;;;;;;5017718;28;20632;-89
2023/04/24 08:50:36;;;;;;;15.90;7.20;;;11.00;90.10;;;;;;5018460;28;20194;-90
2023/04/24 08:53:07;;;;;;;12.77;6.97;;;11.00;79.90;;;;;;5018109;28;20174;-89
2023/04/24 08:55:34;;;;;;;12.57;6.40;;;11.10;75.40;;;;;;5028281;28;20183;-88
2023/04/24 08:58:02;;;;;;;11.10;6.43;;;11.20;69.20;;;;;;5032428;28;20170;-90
2023/04/24 09:00:28;;;;;;;13.30;6.13;;;11.10;59.80;;;;;;5025168;28;20174;-88
2023/04/24 09:02:57;;;;;;;10.10;5.40;;;11.20;57.40;;;;;;5017030;28;20185;-92
2023/04/24 09:05:26;;;;;;;11.13;6.87;;;11.20;54.80;;;;;;5016086;28;20187;-90
2023/04/24 09:07:57;;;;;;;10.03;5.57;;;11.40;48.10;;;;;;5014807;28;20583;-90
2023/04/24 09:10:24;;;;;;;10.47;6.73;;;11.50;36.90;;;;;;5014473;28;20176;-90
2023/04/24 09:12:51;;;;;;;14.97;9.10;;;11.60;36.50;;;;;;5024509;28;20178;-91
2023/04/24 09:15:21;;;;;;;10.40;4.90;;;11.70;26.60;;;;;;5033456;28;20255;-89
2023/04/24 09:17:47;;;;;;;8.47;6.03;;;11.70;20.80;;;;;;5033997;28;20178;-90
2023/04/24 09:20:13;;;;;;;10.43;4.90;;;11.70;24.70;;;;;;5034742;28;20251;-90
2023/04/24 09:22:43;;;;;;;10.77;5.23;;;11.80;20.40;;;;;;5034610;28;20170;-91
2023/04/24 09:25:12;;;;;;;8.93;5.00;;;11.80;17.30;;;;;;5034195;28;20169;-90
2023/04/24 09:27:47;;;;;;;9.13;5.27;;;11.80;14.50;;;;;;5033690;28;20199;-90
2023/04/24 09:30:23;;;;;;;8.17;4.47;;;11.80;16.50;;;;;;5033156;28;20557;-91
2023/04/24 09:33:11;;;;;;;8.23;4.73;;;11.50;18.20;;;;;;5033034;28;20169;-90
2023/04/24 09:35:41;;;;;;;8.53;4.43;;;11.30;28.10;;;;;;5032930;28;20201;-90
2023/04/24 09:38:07;;;;;;;8.70;5.70;;;11.20;8.80;;;;;;5035276;28;20169;-89
2023/04/24 09:40:39;;;;;;;11.83;5.53;;;11.20;9.90;;;;;;5049292;28;20234;-89
2023/04/24 09:43:18;;;;;;;9.43;6.33;;;11.20;5.50;;;;;;5051186;28;20181;-90
2023/04/24 09:45:44;;;;;;;10.63;5.93;;;11.40;1.50;;;;;;5032734;28;20182;-90
2023/04/24 09:48:16;;;;;;;9.67;5.20;;;11.60;1.00;;;;;;5033337;28;20667;-90
2023/04/24 09:50:49;;;;;;;9.10;4.17;;;11.80;1.00;;;;;;5024052;28;20208;-90
2023/04/24 09:53:27;;;;;;;7.63;4.67;;;11.80;1.00;;;;;;5032638;28;20295;-90
2023/04/24 09:55:54;;;;;;;12.47;4.57;;;11.50;1.00;;;;;;5042039;28;20216;-90
2023/04/24 09:58:26;;;;;;;7.47;4.70;;;11.40;9.50;;;;;;5053524;28;20166;-90
2023/04/24 10:00:57;;;;;;;12.33;5.30;;;11.50;8.60;;;;;;5047874;28;20176;-90
2023/04/24 10:03:29;;;;;;;9.07;5.27;;;11.30;5.50;;;;;;5033756;28;20212;-92
2023/04/24 10:06:08;;;;;;;8.30;5.70;;;11.40;2.40;;;;;;5033783;28;20231;-91
2023/04/24 10:08:37;;;;;;;9.57;5.17;;;11.30;6.50;;;;;;5032967;28;20277;-92
2023/04/24 10:11:11;;;;;;;11.00;4.33;;;11.30;2.60;;;;;;5033267;28;20174;-90
2023/04/24 10:13:40;;;;;;;13.83;7.50;;;11.50;1.00;;;;;;5047109;28;20190;-90
2023/04/24 10:16:07;;;;;;;9.33;4.87;;;11.50;1.00;;;;;;5045832;28;20210;-90
2023/04/24 10:18:35;;;;;;;7.80;4.40;;;11.50;1.00;;;;;;5034076;28;20174;-90
2023/04/24 10:21:13;;;;;;;8.57;4.70;;;11.50;1.00;;;;;;5032954;28;20174;-91
2023/04/24 10:23:51;;;;;;;7.53;4.50;;;11.50;1.00;;;;;;5032955;28;20178;-89
2023/04/24 10:26:19;;;;;;;12.13;5.07;;;11.30;1.00;;;;;;5038078;28;20502;-90
2023/04/24 10:28:46;;;;;;;9.37;5.40;;;11.30;6.90;;;;;;5035678;28;20177;-90
2023/04/24 10:31:13;;;;;;;12.97;5.57;;;11.30;7.80;;;;;;5038472;28;20170;-90
2023/04/24 10:33:45;;;;;;;10.67;5.37;;;11.40;3.30;;;;;;5042499;28;20276;-91
2023/04/24 10:36:12;;;;;;;10.10;5.30;;;11.50;1.00;;;;;;5048576;28;20275;-89
2023/04/24 10:38:43;;;;;;;7.63;4.47;;;11.60;1.00;;;;;;5047608;28;20209;-89
2023/04/24 10:41:15;;;;;;;8.60;4.97;;;11.60;1.00;;;;;;5038338;28;20173;-90
2023/04/24 10:44:13;;;;;;;8.63;4.93;;;11.70;1.00;;;;;;5037746;28;20169;-89
2023/04/24 10:46:42;;;;;;;9.03;4.77;;;11.80;1.00;;;;;;5052478;28;20221;-88
2023/04/24 10:49:11;;;;;;;7.73;4.90;;;11.70;1.00;;;;;;5057508;28;20166;-89
2023/04/24 10:52:09;;;;;;;8.30;5.07;;;11.70;1.00;;;;;;5040996;28;20264;-91
2023/04/24 10:54:42;;;;;;;9.50;4.70;;;11.60;1.00;;;;;;5037728;28;20233;-90
2023/04/24 10:57:22;;;;;;;9.03;4.83;;;11.70;1.00;;;;;;5038874;28;20167;-90
2023/04/24 11:00:12;;;;;;;7.23;5.13;;;11.90;1.00;;;;;;5048948;28;20166;-90
2023/04/24 11:02:48;;;;;;;8.87;5.03;;;11.50;1.00;;;;;;5044092;28;20284;-90
2023/04/24 11:05:16;;;;;;;11.17;5.43;;;11.70;1.00;;;;;;5040505;28;20186;-88
2023/04/24 11:08:14;;;;;;;11.33;6.00;;;11.60;1.00;;;;;;5037383;28;20203;-90
2023/04/24 11:10:44;;;;;;;10.43;6.73;;;11.60;1.00;;;;;;5037631;28;20704;-90
2023/04/24 11:13:18;;;;;;;11.97;5.77;;;11.80;1.00;;;;;;5022010;28;20567;-90
2023/04/24 11:15:44;;;;;;;8.27;5.00;;;11.80;1.00;;;;;;5023515;28;20176;-90
2023/04/24 11:18:15;;;;;;;8.53;5.03;;;11.70;1.00;;;;;;5038495;28;20215;-90
2023/04/24 11:20:46;;;;;;;8.90;5.77;;;11.70;1.00;;;;;;5036460;28;20170;-91
2023/04/24 11:23:14;;;;;;;8.40;5.10;;;11.80;1.00;;;;;;5036613;28;20200;-91
2023/04/24 11:25:41;;;;;;;9.83;6.33;;;11.90;1.00;;;;;;5036110;28;20167;-90
2023/04/24 11:28:16;;;;;;;8.43;5.30;;;12.00;1.00;;;;;;5047089;28;20177;-92
2023/04/24 11:30:42;;;;;;;8.73;4.63;;;12.10;1.00;;;;;;5050944;28;20177;-88
2023/04/24 11:33:08;;;;;;;8.87;5.00;;;12.00;1.00;;;;;;5036385;28;20228;-91
2023/04/24 11:35:40;;;;;;;8.03;4.93;;;11.90;1.00;;;;;;5040380;28;20247;-90
2023/04/24 11:38:07;;;;;;;8.83;5.20;;;12.10;1.00;;;;;;5053871;28;20175;-89
2023/04/24 11:40:33;;;;;;;8.87;5.20;;;12.10;1.00;;;;;;5055579;28;20174;-90
2023/04/24 11:43:05;;;;;;;9.37;5.27;;;12.00;1.00;;;;;;5057795;28;20175;-91
2023/04/24 11:45:31;;;;;;;7.13;5.43;;;12.00;1.00;;;;;;5044204;28;20161;-91
2023/04/24 11:47:58;;;;;;;9.23;5.63;;;12.10;1.00;;;;;;5037185;28;20245;-89
2023/04/24 11:50:28;;;;;;;9.00;5.93;;;12.00;1.00;;;;;;5036577;28;20634;-91
2023/04/24 11:52:55;;;;;;;7.10;5.60;;;12.00;1.00;;;;;;5037426;28;20194;-92
2023/04/24 11:55:20;;;;;;;6.17;4.83;;;12.00;1.00;;;;;;5037129;28;20174;-89
2023/04/24 11:57:53;;;;;;;9.13;5.07;;;11.90;1.00;;;;;;5036971;28;20229;-89
2023/04/24 12:00:21;;;;;;;9.03;5.23;;;12.00;1.00;;;;;;5036825;28;20709;-88
2023/04/24 12:03:03;;;;;;;7.87;5.87;;;12.00;1.00;;;;;;5051658;28;20173;-88
2023/04/24 12:05:31;;;;;;;7.77;6.23;;;11.90;1.00;;;;;;5039132;28;20179;-90
2023/04/24 12:07:56;;;;;;;8.77;6.40;;;11.90;1.00;;;;;;5044994;28;20820;-89
2023/04/24 12:10:24;;;;;;;10.57;7.93;;;12.00;1.00;;;;;;5044653;28;20329;-92
2023/04/24 12:12:51;;;;;;;12.47;6.57;;;12.10;1.00;;;;;;5036989;28;20169;-88
2023/04/24 12:15:18;;;;;;;10.57;7.70;;;12.20;1.00;;;;;;5039509;28;20218;-89
2023/04/24 12:17:45;;;;;;;10.73;7.40;;;12.30;1.00;;;;;;5054887;28;20163;-88
2023/04/24 12:20:13;;;;;;;26.30;14.10;;;12.30;1.00;;;;;;5056753;28;20162;-88
2023/04/24 12:23:02;;;;;;;10.43;6.93;;;12.40;1.00;;;;;;5045214;28;20169;-92
2023/04/24 12:25:32;;;;;;;7.30;5.20;;;12.60;1.00;;;;;;5057231;28;20180;-90
2023/04/24 12:28:04;;;;;;;6.17;4.53;;;12.70;1.00;;;;;;5048962;28;20173;-90
2023/04/24 12:30:39;;;;;;;8.87;5.63;;;12.80;1.00;;;;;;5039463;28;20741;-91
2023/04/24 12:33:05;;;;;;;6.70;4.90;;;12.80;1.00;;;;;;5037474;28;20241;-90
2023/04/24 12:35:33;;;;;;;7.43;6.43;;;12.90;1.00;;;;;;5037645;28;20623;-89
2023/04/24 12:38:29;;;;;;;8.13;6.20;;;12.90;1.00;;;;;;5052398;28;20703;-89
2023/04/24 12:41:05;;;;;;;7.10;4.93;;;13.10;1.00;;;;;;5052033;28;20178;-91
2023/04/24 12:43:38;;;;;;;6.40;4.57;;;13.30;1.00;;;;;;5037805;28;20171;-89
2023/04/24 12:46:04;;;;;;;10.30;5.93;;;13.30;1.00;;;;;;5035646;28;20183;-90
2023/04/24 12:48:31;;;;;;;10.30;6.07;;;13.40;1.00;;;;;;5035669;28;20172;-89
2023/04/24 12:51:03;;;;;;;10.00;5.63;;;13.30;1.00;;;;;;5036119;28;20271;-91
2023/04/24 12:53:31;;;;;;;6.87;4.87;;;13.20;1.00;;;;;;5038188;28;20201;-89
2023/04/24 12:55:58;;;;;;;5.90;4.30;;;13.10;1.00;;;;;;5037271;28;20218;-90
2023/04/24 12:58:24;;;;;;;6.50;4.60;;;12.70;1.00;;;;;;5037854;28;20185;-88
2023/04/24 13:00:50;;;;;;;6.90;4.33;;;12.70;1.00;;;;;;5055877;28;20177;-88
2023/04/24 13:03:16;;;;;;;6.67;4.40;;;12.70;1.00;;;;;;5055825;28;20177;-89